createdAt,value
2023-03-02T00:00:21.028Z,2.63
2023-03-02T00:02:49.529Z,2.01
2023-03-02T00:05:17.478Z,1.52
2023-03-02T00:07:45.320Z,1.92
2023-03-02T00:10:14.090Z,2.08
2023-03-02T00:12:43.051Z,2.06
2023-03-02T00:15:11.081Z,2.04
2023-03-02T00:38:16.083Z,2.52
2023-03-02T00:40:47.249Z,2.52
2023-03-02T00:43:16.683Z,1.89
2023-03-02T00:45:45.006Z,1.79
2023-03-02T00:48:12.872Z,1.65
2023-03-02T00:50:41.640Z,1.63
2023-03-02T00:53:10.519Z,1.55
2023-03-02T00:55:38.431Z,1.49
2023-03-02T00:58:06.947Z,1.53
2023-03-02T01:25:39.204Z,1.06
2023-03-02T01:28:08.279Z,0.96
2023-03-02T01:30:36.847Z,0.99
2023-03-02T01:33:04.717Z,1.07
2023-03-02T01:35:32.901Z,1.06
2023-03-02T01:38:00.802Z,1.04
2023-03-02T01:40:29.611Z,1.02
2023-03-02T01:43:02.537Z,0.97
2023-03-02T02:09:20.482Z,1.33
2023-03-02T02:11:49.326Z,1.33
2023-03-02T02:14:17.681Z,0.56
2023-03-02T02:16:45.684Z,0.49
2023-03-02T02:19:45.016Z,0.41
2023-03-02T02:22:22.563Z,0.58
2023-03-02T02:24:58.664Z,0.64
2023-03-02T02:48:19.371Z,1.47
2023-03-02T02:51:01.438Z,1.47
2023-03-02T02:53:41.352Z,0.74
2023-03-02T02:56:10.762Z,0.76
2023-03-02T02:58:52.652Z,0.79
2023-03-02T03:01:26.128Z,0.78
2023-03-02T03:03:57.555Z,0.83
2023-03-02T03:06:30.698Z,0.84
2023-03-02T03:09:01.245Z,0.86
2023-03-02T03:11:34.155Z,0.88
2023-03-02T03:32:07.543Z,1.49
2023-03-02T03:34:41.087Z,1.49
2023-03-02T03:37:11.585Z,0.87
2023-03-02T03:39:40.570Z,0.75
2023-03-02T03:42:08.834Z,0.55
2023-03-02T03:44:37.681Z,0.58
2023-03-02T03:47:06.252Z,0.71
2023-03-02T03:49:34.997Z,0.67
2023-03-02T04:15:08.527Z,1.14
2023-03-02T04:17:37.634Z,1.14
2023-03-02T04:20:08.979Z,0.38
2023-03-02T04:22:48.644Z,0.24
2023-03-02T04:25:22.875Z,0.45
2023-03-02T04:27:52.753Z,0.33
2023-03-02T04:30:24.670Z,0.48
2023-03-02T04:32:53.632Z,0.44
2023-03-02T04:35:35.502Z,0.41
2023-03-02T04:58:56.596Z,1.35
2023-03-02T05:01:25.418Z,1.35
2023-03-02T05:03:53.529Z,0.42
2023-03-02T05:06:25.339Z,0.52
2023-03-02T05:08:54.037Z,0.51
2023-03-02T05:11:24.544Z,0.64
2023-03-02T05:13:58.264Z,0.52
2023-03-02T05:16:31.271Z,0.56
2023-03-02T05:19:00.619Z,0.50
2023-03-02T05:41:52.300Z,1.56
2023-03-02T05:44:20.901Z,1.56
2023-03-02T05:46:49.753Z,0.93
2023-03-02T05:49:17.891Z,0.88
2023-03-02T05:51:46.202Z,0.90
2023-03-02T05:54:14.516Z,0.98
2023-03-02T05:56:42.592Z,1.02
2023-03-02T05:59:10.744Z,1.14
2023-03-02T06:01:39.053Z,1.14
2023-03-02T06:06:51.580Z,1.25
2023-03-02T06:09:20.231Z,1.35
2023-03-02T06:23:04.725Z,1.88
2023-03-02T06:28:24.874Z,2.16
2023-03-02T06:30:53.813Z,2.23
2023-03-02T06:33:22.189Z,1.77
2023-03-02T06:35:50.618Z,2.38
2023-03-02T06:38:18.998Z,2.33
2023-03-02T06:40:47.146Z,2.47
2023-03-02T06:43:15.374Z,2.50
2023-03-02T06:45:45.881Z,2.59
2023-03-02T06:48:13.908Z,2.55
2023-03-02T06:50:42.730Z,2.61
2023-03-02T06:53:12.375Z,2.75
2023-03-02T06:55:40.688Z,2.96
2023-03-02T06:58:13.248Z,2.95
2023-03-02T07:00:42.429Z,3.06
2023-03-02T07:03:10.459Z,3.07
2023-03-02T07:05:38.631Z,3.58
2023-03-02T07:08:18.305Z,3.58
2023-03-02T07:10:46.261Z,4.04
2023-03-02T07:26:23.301Z,3.88
2023-03-02T07:36:16.802Z,4.65
2023-03-02T07:38:45.731Z,4.65
2023-03-02T07:41:15.609Z,4.05
2023-03-02T07:43:43.801Z,4.11
2023-03-02T07:46:12.624Z,4.20
2023-03-02T07:48:40.875Z,4.02
2023-03-02T07:51:08.895Z,4.26
2023-03-02T07:53:37.281Z,4.28
2023-03-02T07:56:11.233Z,4.56
2023-03-02T07:58:39.636Z,4.50
2023-03-02T08:01:07.851Z,4.60
2023-03-02T08:03:37.115Z,4.96
2023-03-02T08:06:13.012Z,5.26
2023-03-02T08:08:46.404Z,5.17
2023-03-02T08:11:20.635Z,5.10
2023-03-02T08:13:49.127Z,4.94
2023-03-02T08:20:04.001Z,5.13
2023-03-02T08:22:36.320Z,5.31
2023-03-02T08:29:25.097Z,5.17
2023-03-02T08:32:47.116Z,5.02
2023-03-02T08:51:08.930Z,6.36
2023-03-02T08:53:42.238Z,6.49
2023-03-02T08:56:28.917Z,7.68
2023-03-02T08:59:03.247Z,9.53
2023-03-02T09:01:34.698Z,10.02
2023-03-02T09:04:05.266Z,9.55
2023-03-02T09:06:36.233Z,10.77
2023-03-02T09:09:05.426Z,11.54
2023-03-02T09:11:34.696Z,10.90
2023-03-02T09:14:03.476Z,9.63
2023-03-02T09:16:32.239Z,10.69
2023-03-02T09:19:00.645Z,11.51
2023-03-02T09:21:28.936Z,11.66
2023-03-02T09:23:59.549Z,11.79
2023-03-02T09:29:10.772Z,12.54
2023-03-02T09:34:05.871Z,11.86
2023-03-02T09:39:16.694Z,11.65
2023-03-02T09:42:03.437Z,10.66
2023-03-02T09:44:41.621Z,11.60
2023-03-02T09:47:35.854Z,10.92
2023-03-02T09:50:25.655Z,10.44
2023-03-02T09:53:08.840Z,9.50
2023-03-02T09:55:37.969Z,9.39
2023-03-02T09:58:17.558Z,9.05
2023-03-02T10:00:47.366Z,8.91
2023-03-02T10:03:35.039Z,8.93
2023-03-02T10:06:03.212Z,8.67
2023-03-02T10:08:36.758Z,8.93
2023-03-02T10:11:18.974Z,9.01
2023-03-02T10:13:53.831Z,8.39
2023-03-02T10:17:16.446Z,8.53
2023-03-02T10:19:53.845Z,8.62
2023-03-02T10:28:26.606Z,9.32
2023-03-02T10:31:10.481Z,9.13
2023-03-02T10:33:40.703Z,8.96
2023-03-02T10:36:32.097Z,9.11
2023-03-02T10:39:01.127Z,9.25
2023-03-02T10:44:34.145Z,8.88
2023-03-02T10:47:02.819Z,9.28
2023-03-02T10:54:50.691Z,9.70
2023-03-02T10:57:31.182Z,9.72
2023-03-02T11:00:23.537Z,9.88
2023-03-02T11:02:57.548Z,10.06
2023-03-02T11:05:41.782Z,9.68
2023-03-02T11:08:33.186Z,9.81
2023-03-02T11:11:03.702Z,10.14
2023-03-02T11:13:34.112Z,9.90
2023-03-02T11:16:18.778Z,9.99
2023-03-02T11:18:57.502Z,9.57
2023-03-02T11:21:29.681Z,10.11
2023-03-02T11:24:05.392Z,9.92
2023-03-02T11:26:51.979Z,10.04
2023-03-02T11:29:45.885Z,10.02
2023-03-02T11:32:20.318Z,9.99
2023-03-02T11:34:58.468Z,10.03
2023-03-02T11:45:13.891Z,10.05
2023-03-02T12:06:07.264Z,9.87
2023-03-02T12:08:44.962Z,9.78
2023-03-02T12:11:18.876Z,9.43
2023-03-02T12:13:59.825Z,9.56
2023-03-02T12:16:41.119Z,9.77
2023-03-02T12:19:38.946Z,10.25
2023-03-02T12:22:10.798Z,10.48
2023-03-02T12:24:40.767Z,10.37
2023-03-02T12:27:26.223Z,10.70
2023-03-02T12:30:17.226Z,10.10
2023-03-02T12:32:58.400Z,10.06
2023-03-02T12:35:27.524Z,9.91
2023-03-02T12:38:31.212Z,10.16
2023-03-02T13:13:43.295Z,10.80
2023-03-02T13:16:26.912Z,10.80
2023-03-02T13:18:58.232Z,10.27
2023-03-02T13:21:37.954Z,10.13
2023-03-02T13:24:33.926Z,9.99
2023-03-02T13:27:18.582Z,9.71
2023-03-02T13:29:55.743Z,9.84
2023-03-02T13:32:36.319Z,9.65
2023-03-02T13:35:26.580Z,9.85
2023-03-02T13:38:03.074Z,9.49
2023-03-02T13:40:38.011Z,9.56
2023-03-02T13:43:33.704Z,9.91
2023-03-02T13:46:27.614Z,9.86
2023-03-02T13:49:10.621Z,9.60
2023-03-02T13:51:46.323Z,9.74
2023-03-02T13:54:26.013Z,9.67
2023-03-02T13:56:54.578Z,9.57
2023-03-02T13:59:26.580Z,8.94
2023-03-02T14:01:54.957Z,9.45
2023-03-02T14:04:24.060Z,9.41
2023-03-02T14:40:25.824Z,9.47
2023-03-02T14:42:54.781Z,9.47
2023-03-02T14:45:23.198Z,9.12
2023-03-02T14:47:51.188Z,9.21
2023-03-02T14:50:20.169Z,9.26
2023-03-02T14:52:55.249Z,9.26
2023-03-02T14:55:29.491Z,9.03
2023-03-02T14:58:04.221Z,9.01
2023-03-02T15:00:32.826Z,9.18
2023-03-02T15:03:01.059Z,8.93
2023-03-02T15:15:18.078Z,8.82
2023-03-02T15:27:42.792Z,9.27
2023-03-02T15:30:13.862Z,9.27
2023-03-02T15:32:43.954Z,8.73
2023-03-02T15:35:15.257Z,8.78
2023-03-02T15:37:43.264Z,8.54
2023-03-02T15:40:13.946Z,8.59
2023-03-02T15:42:44.370Z,7.99
2023-03-02T15:45:12.195Z,8.37
2023-03-02T15:47:40.172Z,8.33
2023-03-02T15:50:10.747Z,8.36
2023-03-02T15:52:43.450Z,8.28
2023-03-02T16:18:36.691Z,8.38
2023-03-02T16:21:05.692Z,8.38
2023-03-02T16:23:33.742Z,7.63
2023-03-02T16:26:10.259Z,7.58
2023-03-02T16:28:38.738Z,7.45
2023-03-02T16:31:13.488Z,7.51
2023-03-02T16:33:42.525Z,7.44
2023-03-02T16:36:11.540Z,7.54
2023-03-02T16:38:39.777Z,7.55
2023-03-02T16:59:17.661Z,7.37
2023-03-02T17:01:46.501Z,7.12
2023-03-02T17:04:14.902Z,7.25
2023-03-02T17:06:59.987Z,7.20
2023-03-02T17:09:29.314Z,7.24
2023-03-02T17:11:57.674Z,7.18
2023-03-02T17:14:26.165Z,7.11
2023-03-02T17:16:56.564Z,7.09
2023-03-02T17:19:31.279Z,7.04
2023-03-02T17:42:57.674Z,6.98
2023-03-02T17:45:31.240Z,6.82
2023-03-02T17:48:00.168Z,6.78
2023-03-02T17:50:31.942Z,6.80
2023-03-02T17:53:00.319Z,6.77
2023-03-02T17:55:29.170Z,6.78
2023-03-02T17:57:57.372Z,6.88
2023-03-02T18:00:27.251Z,6.93
2023-03-02T18:02:55.949Z,6.78
2023-03-02T18:26:20.014Z,7.65
2023-03-02T18:28:48.821Z,7.65
2023-03-02T18:31:19.053Z,6.90
2023-03-02T18:33:47.850Z,6.90
2023-03-02T18:36:16.808Z,6.77
2023-03-02T18:38:45.637Z,6.81
2023-03-02T18:41:14.460Z,6.70
2023-03-02T18:43:43.490Z,6.61
2023-03-02T19:04:08.868Z,7.50
2023-03-02T19:06:37.871Z,7.50
2023-03-02T19:09:06.449Z,6.85
2023-03-02T19:11:34.743Z,6.84
2023-03-02T19:14:03.415Z,6.82
2023-03-02T19:16:31.698Z,6.69
2023-03-02T19:19:00.121Z,6.70
2023-03-02T19:21:28.387Z,6.54
2023-03-02T19:26:40.425Z,6.38
2023-03-02T19:31:46.150Z,6.70
2023-03-02T19:34:15.312Z,6.60
2023-03-02T19:36:45.038Z,6.46
2023-03-02T19:39:13.385Z,6.69
2023-03-02T19:41:42.070Z,6.73
2023-03-02T19:44:12.330Z,6.62
2023-03-02T19:46:40.574Z,6.57
2023-03-02T19:49:09.930Z,6.48
2023-03-02T20:09:37.333Z,7.03
2023-03-02T20:12:08.245Z,7.03
2023-03-02T20:14:36.329Z,6.47
2023-03-02T20:17:05.238Z,6.39
2023-03-02T20:19:34.347Z,6.38
2023-03-02T20:22:03.863Z,6.11
2023-03-02T20:24:32.071Z,6.29
2023-03-02T20:27:00.411Z,6.26
2023-03-02T20:47:15.472Z,7.13
2023-03-02T20:49:44.800Z,7.13
2023-03-02T20:52:13.086Z,6.48
2023-03-02T20:54:42.626Z,6.27
2023-03-02T20:57:16.134Z,6.30
2023-03-02T20:59:46.080Z,6.25
2023-03-02T21:05:00.448Z,6.08
2023-03-02T21:25:00.814Z,7.04
2023-03-02T21:27:29.418Z,7.04
2023-03-02T21:30:01.874Z,6.43
2023-03-02T21:32:33.380Z,6.12
2023-03-02T21:35:02.598Z,6.26
2023-03-02T21:37:31.146Z,6.37
2023-03-02T21:42:48.723Z,6.23
2023-03-02T22:03:07.556Z,6.85
2023-03-02T22:05:36.247Z,6.85
2023-03-02T22:08:04.179Z,6.26
2023-03-02T22:10:38.803Z,6.23
2023-03-02T22:13:21.217Z,6.14
2023-03-02T22:15:55.046Z,6.30
2023-03-02T22:18:25.914Z,6.14
2023-03-02T22:20:54.364Z,6.28
2023-03-02T22:39:01.152Z,6.90
2023-03-02T22:41:29.865Z,6.90
2023-03-02T22:43:58.014Z,6.38
2023-03-02T22:46:26.192Z,6.42
2023-03-02T22:48:55.133Z,6.45
2023-03-02T22:51:30.555Z,6.32
2023-03-02T22:54:00.543Z,6.13
2023-03-02T22:56:40.857Z,6.38
2023-03-02T23:14:59.900Z,6.69
2023-03-02T23:17:39.575Z,6.69
2023-03-02T23:20:11.137Z,5.89
2023-03-02T23:22:39.480Z,6.03
2023-03-02T23:25:08.825Z,6.16
2023-03-02T23:27:36.773Z,6.26
2023-03-02T23:30:06.533Z,6.26
2023-03-02T23:32:40.843Z,6.25
2023-03-02T23:52:35.223Z,7.00
2023-03-02T23:55:04.704Z,7.00
2023-03-02T23:57:32.584Z,6.27
